createdAt,value
2022-09-28T00:04:51.248Z,4.93
2022-09-28T00:09:51.997Z,4.72
2022-09-28T00:14:53.682Z,5.22
2022-09-28T00:19:55.953Z,4.10
2022-09-28T00:24:56.680Z,4.80
2022-09-28T00:29:57.475Z,4.72
2022-09-28T00:34:58.285Z,4.53
2022-09-28T00:39:59.052Z,4.45
2022-09-28T00:44:59.892Z,4.60
2022-09-28T00:50:27.600Z,4.40
2022-09-28T00:55:39.074Z,4.90
2022-09-28T01:00:40.350Z,4.75
2022-09-28T01:05:42.799Z,4.57
2022-09-28T01:10:43.626Z,5.27
2022-09-28T01:16:03.699Z,4.90
2022-09-28T01:21:26.609Z,4.90
2022-09-28T01:26:59.882Z,4.72
2022-09-28T01:32:21.681Z,5.70
2022-09-28T01:37:33.218Z,5.60
2022-09-28T01:42:38.347Z,4.18
2022-09-28T01:47:40.618Z,3.62
2022-09-28T01:52:58.311Z,5.28
2022-09-28T01:58:16.955Z,1.92
2022-09-28T02:03:23.937Z,3.42
2022-09-28T02:08:37.120Z,3.62
2022-09-28T02:13:46.239Z,3.65
2022-09-28T02:18:47.466Z,3.22
2022-09-28T02:24:02.675Z,3.12
2022-09-28T02:29:04.450Z,2.20
2022-09-28T02:34:05.375Z,1.98
2022-09-28T02:39:13.242Z,1.67
2022-09-28T02:44:38.610Z,1.98
2022-09-28T02:53:49.313Z,2.45
2022-09-28T03:02:03.869Z,1.12
2022-09-28T03:07:22.725Z,0.85
2022-09-28T03:12:25.619Z,0.80
2022-09-28T03:17:26.469Z,0.93
2022-09-28T03:22:27.416Z,0.98
2022-09-28T03:27:28.158Z,0.90
2022-09-28T03:32:29.370Z,0.90
2022-09-28T03:37:30.279Z,0.88
2022-09-28T03:42:31.557Z,0.82
2022-09-28T03:47:32.419Z,0.50
2022-09-28T03:52:33.301Z,0.80
2022-09-28T03:57:34.076Z,0.70
2022-09-28T04:02:35.212Z,0.90
2022-09-28T04:07:36.675Z,1.40
2022-09-28T04:12:37.870Z,0.98
2022-09-28T04:17:40.395Z,1.08
2022-09-28T04:22:48.820Z,1.48
2022-09-28T04:28:07.775Z,1.17
2022-09-28T04:33:10.444Z,1.10
2022-09-28T04:38:11.183Z,1.15
2022-09-28T04:43:12.281Z,1.27
2022-09-28T04:48:13.133Z,1.30
2022-09-28T04:54:29.561Z,1.52
2022-09-28T04:59:30.848Z,2.20
2022-09-28T05:04:31.894Z,1.50
2022-09-28T05:14:46.106Z,1.60
2022-09-28T05:19:46.989Z,1.50
2022-09-28T05:24:48.225Z,1.87
2022-09-28T05:29:49.351Z,1.85
2022-09-28T05:39:55.961Z,1.93
2022-09-28T05:44:59.923Z,1.77
2022-09-28T05:50:01.319Z,1.70
2022-09-28T05:55:03.224Z,1.70
2022-09-28T06:00:08.209Z,2.10
2022-09-28T06:05:13.742Z,2.08
2022-09-28T06:10:14.758Z,2.00
2022-09-28T06:15:17.096Z,1.55
2022-09-28T06:20:18.977Z,2.22
2022-09-28T06:30:44.283Z,2.25
2022-09-28T06:35:48.962Z,2.72
2022-09-28T06:40:50.338Z,2.35
2022-09-28T06:45:53.038Z,2.40
2022-09-28T06:57:08.299Z,2.53
2022-09-28T07:02:13.870Z,2.62
2022-09-28T07:07:48.079Z,2.53
2022-09-28T07:13:37.384Z,2.87
2022-09-28T07:18:47.500Z,2.55
2022-09-28T07:23:53.865Z,2.35
2022-09-28T07:29:37.353Z,2.33
2022-09-28T07:41:31.726Z,2.60
2022-09-28T07:46:33.998Z,2.95
2022-09-28T07:51:43.429Z,2.47
2022-09-28T07:58:37.478Z,1.80
2022-09-28T08:09:01.042Z,1.45
2022-09-28T08:14:20.552Z,1.62
2022-09-28T08:20:51.685Z,1.87
2022-09-28T08:25:54.278Z,1.15
2022-09-28T08:30:59.157Z,1.35
2022-09-28T08:36:20.983Z,1.10
2022-09-28T08:42:39.114Z,1.15
2022-09-28T08:49:13.471Z,1.20
2022-09-28T08:55:04.927Z,1.45
2022-09-28T09:00:28.814Z,1.50
2022-09-28T09:05:59.430Z,0.93
2022-09-28T09:11:56.446Z,1.00
2022-09-28T09:17:25.328Z,1.00
2022-09-28T09:23:54.855Z,0.80
2022-09-28T09:29:20.984Z,0.75
2022-09-28T09:36:11.543Z,1.73
2022-09-28T09:46:40.040Z,1.10
2022-09-28T09:52:01.362Z,0.70
2022-09-28T09:57:13.745Z,2.83
2022-09-28T10:02:31.017Z,1.70
2022-09-28T10:08:29.537Z,1.52
2022-09-28T10:13:31.349Z,2.03
2022-09-28T10:18:34.982Z,1.42
2022-09-28T10:24:01.838Z,0.70
2022-09-28T10:30:46.751Z,1.02
2022-09-28T10:35:48.072Z,1.00
2022-09-28T10:40:57.695Z,0.80
2022-09-28T10:46:20.998Z,0.90
2022-09-28T10:51:46.443Z,0.70
2022-09-28T10:56:52.438Z,0.82
2022-09-28T11:02:54.314Z,1.10
2022-09-28T11:08:05.807Z,0.95
2022-09-28T11:13:12.032Z,0.98
2022-09-28T11:18:30.550Z,0.90
2022-09-28T11:23:33.535Z,0.60
2022-09-28T11:28:50.779Z,1.70
2022-09-28T11:34:06.325Z,0.90
2022-09-28T11:39:27.432Z,0.90
2022-09-28T11:50:39.136Z,0.80
2022-09-28T11:55:55.012Z,1.08
2022-09-28T12:01:08.046Z,0.73
2022-09-28T12:06:46.012Z,0.90
2022-09-28T12:11:57.928Z,0.85
2022-09-28T12:17:24.057Z,0.50
2022-09-28T12:22:32.385Z,0.57
2022-09-28T12:30:20.767Z,0.57
2022-09-28T12:38:38.499Z,1.00
2022-09-28T12:45:04.343Z,0.77
2022-09-28T12:51:50.779Z,0.77
2022-09-28T12:58:49.751Z,0.82
2022-09-28T13:04:13.308Z,0.98
2022-09-28T13:10:40.474Z,1.70
2022-09-28T13:16:05.085Z,0.98
2022-09-28T13:23:01.627Z,1.10
2022-09-28T13:28:04.811Z,1.40
2022-09-28T13:39:27.415Z,1.00
2022-09-28T13:44:53.540Z,1.45
2022-09-28T13:51:49.012Z,1.12
2022-09-28T13:57:02.217Z,0.70
2022-09-28T14:02:31.088Z,0.95
2022-09-28T14:08:30.712Z,0.90
2022-09-28T14:16:42.929Z,1.10
2022-09-28T14:22:14.536Z,0.70
2022-09-28T14:27:45.343Z,0.80
2022-09-28T14:32:54.721Z,0.98
2022-09-28T14:38:18.574Z,0.82
2022-09-28T14:44:12.677Z,0.90
2022-09-28T14:50:00.887Z,0.90
2022-09-28T14:55:02.322Z,1.05
2022-09-28T15:00:08.360Z,2.00
2022-09-28T15:05:15.711Z,1.08
2022-09-28T15:10:31.993Z,6.53
2022-09-28T15:15:38.261Z,1.00
2022-09-28T15:20:41.257Z,2.08
2022-09-28T15:25:51.329Z,5.55
2022-09-28T15:30:59.023Z,2.37
2022-09-28T15:36:04.097Z,7.80
2022-09-28T15:41:06.804Z,1.48
2022-09-28T15:46:17.613Z,1.25
2022-09-28T15:51:21.301Z,1.45
2022-09-28T15:56:22.254Z,1.25
2022-09-28T16:01:36.263Z,1.12
2022-09-28T16:06:40.231Z,0.95
2022-09-28T16:11:41.133Z,1.00
2022-09-28T16:16:47.928Z,1.75
2022-09-28T16:21:52.129Z,2.03
2022-09-28T16:27:00.357Z,1.50
2022-09-28T16:33:54.743Z,1.98
2022-09-28T16:38:55.674Z,1.33
2022-09-28T16:44:01.459Z,1.35
2022-09-28T16:49:05.184Z,1.33
2022-09-28T16:54:36.853Z,0.90
2022-09-28T16:59:38.019Z,2.62
2022-09-28T17:04:39.064Z,58.10
2022-09-28T17:09:39.864Z,55.03
2022-09-28T17:14:40.956Z,22.77
2022-09-28T17:19:41.737Z,4.45
2022-09-28T17:24:45.127Z,2.53
2022-09-28T17:34:55.977Z,1.98
2022-09-28T17:40:21.570Z,2.95
2022-09-28T17:45:26.319Z,1.35
2022-09-28T17:50:31.613Z,1.80
2022-09-28T17:55:35.609Z,1.70
2022-09-28T18:00:36.384Z,2.12
2022-09-28T18:05:37.279Z,2.80
2022-09-28T18:10:38.075Z,3.80
2022-09-28T18:15:39.087Z,4.82
2022-09-28T18:20:41.180Z,10.45
2022-09-28T18:25:43.784Z,5.20
2022-09-28T18:30:44.904Z,2.87
2022-09-28T18:35:53.453Z,2.60
2022-09-28T18:40:55.647Z,4.90
2022-09-28T18:45:56.449Z,3.62
2022-09-28T18:50:57.473Z,1.92
2022-09-28T18:56:08.483Z,2.05
2022-09-28T19:06:44.038Z,1.60
2022-09-28T19:11:45.479Z,1.90
2022-09-28T19:16:46.390Z,2.12
2022-09-28T19:21:47.242Z,1.80
2022-09-28T19:26:48.976Z,1.70
2022-09-28T19:31:51.061Z,1.48
2022-09-28T19:36:51.929Z,1.42
2022-09-28T19:41:53.476Z,1.40
2022-09-28T19:47:06.105Z,1.73
2022-09-28T19:52:15.451Z,1.70
2022-09-28T19:57:18.742Z,1.70
2022-09-28T20:02:20.458Z,1.75
2022-09-28T20:07:21.298Z,1.87
2022-09-28T20:12:22.420Z,2.50
2022-09-28T20:17:23.337Z,2.60
2022-09-28T20:22:24.086Z,3.30
2022-09-28T20:27:26.616Z,4.12
2022-09-28T20:32:31.313Z,6.43
2022-09-28T20:37:32.713Z,3.22
2022-09-28T20:42:33.463Z,2.37
2022-09-28T20:47:34.231Z,3.12
2022-09-28T20:52:34.970Z,1.98
2022-09-28T20:57:35.968Z,2.17
2022-09-28T21:02:36.826Z,2.10
2022-09-28T21:07:37.753Z,2.53
2022-09-28T21:12:39.072Z,2.92
2022-09-28T21:17:39.919Z,3.35
2022-09-28T21:22:40.693Z,3.17
2022-09-28T21:27:42.007Z,2.40
2022-09-28T21:32:42.733Z,1.98
2022-09-28T21:37:43.531Z,2.22
2022-09-28T21:42:44.307Z,2.40
2022-09-28T21:47:52.310Z,1.95
2022-09-28T21:52:54.671Z,1.30
2022-09-28T21:57:55.658Z,1.60
2022-09-28T22:02:56.467Z,1.20
2022-09-28T22:07:57.241Z,1.37
2022-09-28T22:12:57.984Z,2.05
2022-09-28T22:17:58.748Z,1.92
2022-09-28T22:22:59.589Z,2.22
2022-09-28T22:28:00.942Z,1.75
2022-09-28T22:33:01.870Z,1.37
2022-09-28T22:38:02.724Z,1.90
2022-09-28T22:43:03.507Z,1.40
2022-09-28T22:48:04.319Z,1.60
2022-09-28T22:53:05.646Z,2.15
2022-09-28T22:58:06.903Z,4.28
2022-09-28T23:03:08.169Z,4.43
2022-09-28T23:08:09.751Z,2.80
2022-09-28T23:13:10.491Z,1.20
2022-09-28T23:18:11.294Z,1.55
2022-09-28T23:23:12.497Z,2.12
2022-09-28T23:28:13.676Z,3.37
2022-09-28T23:33:16.585Z,2.25
2022-09-28T23:38:18.047Z,2.30
2022-09-28T23:43:18.913Z,2.40
2022-09-28T23:48:19.706Z,2.90
2022-09-28T23:53:20.499Z,2.55
2022-09-28T23:58:21.679Z,2.90
